Airfield :
LOGIN :

Register | Disclaimer

   EN    FR    IT 

 










Legend :    VFR   Marginal VFR   IFR   Intensive IFR   Very Intensive IFR
Visi :
Ceiling :
>= 8 km
>= 3000ft
5 to 8 km
1000 to 3000 ft
1500m to 5 km
500 to 1000 ft
800 to 1500m
200 to 500 ft
< 800m
< 200 ft
Symbols :   Thunderstorms  Fog  Heavy snow  Heavy precipitations  Wind > 20 kt
SIGMETs :     Misc.  Thunderstorms  Icing  Turbulence  Mountain Waves  Volcanic Ashes







- Airport Elevation : 545 ft
- IATA code : PZY


LZPP - Piešťany

CURRENT METAR :
  • 172300Z AUTO VRB02KT 5000 BR NCD M04/M05 Q1022

EXPIRED METARs :
  • 172230Z AUTO 00000KT 8000 BKN036/// M05/M05 Q1022
  • 172200Z AUTO 12003KT 080V150 5000 BR FEW032/// M04/M04 Q1021
  • 172130Z AUTO 09003KT 5000 BR NCD M03/M04 Q1021
  • 172100Z AUTO VRB01KT 4700 BR NCD M04/M04 Q1021
  • 172030Z AUTO 10002KT 5000 BR NCD M03/M04 Q1021
  • 172000Z VRB01KT 5000 BR FEW040 M04/M05 Q1021

TAF TAF LZPP
Valid from the 17 at 18:00 until the 18 at 03:00 UTC


171700Z 1718/1803 VRB02KT 6000 SCT025
BECMG 1718/1720 1500 BR BKN003
TEMPO 1721/1803 0300 FZFG OVC001
No reported NOTAMs for that airfield.



MET'MAP, your aeronautical weather chart ! - Copyright ORBIFLY December 2007 - Disclaimer

ORBIFLY MET'MAP TEAM :

Programming & Development : Alexandra Zaïnal
Concept & Development : Baudouin d'Aumeries
Co-Development & Prog : Marc-Olivier Méhu
Technical & hardware support : Manuel Goepfert

Contact : metmap@orbifly.com




SOURCES & CREDITS :

   NOAA